Time;durP1;ratioP1;P1;durP2;ratioP2;P2;SDS_P1;SDS_P2;PMS_P1;PMS_P2;Temp;Humidity;BMP_temperature;BMP_pressure;BME280_temperature;BME280_humidity;BME280_pressure;Samples;Min_cycle;Max_cycle;Signal;HPM_P1;HPM_P2
2021/12/19 00:00:06;;;;;;;23.02;9.02;;;7.40;99.90;;;;;;5071395;28;20105;-86
2021/12/19 00:02:45;;;;;;;19.52;8.68;;;7.40;99.90;;;;;;5088339;28;20044;-86
2021/12/19 00:10:39;;;;;;;;;;;7.40;99.90;;;;;;5083320;28;20045;-86
2021/12/19 00:13:06;;;;;;;19.73;8.70;;;7.30;99.90;;;;;;5050991;28;19920;-87
2021/12/19 00:15:32;;;;;;;21.17;8.90;;;7.30;99.90;;;;;;5051369;28;20093;-87
2021/12/19 00:17:57;;;;;;;26.02;9.93;;;7.30;99.90;;;;;;5075552;28;20048;-86
2021/12/19 00:20:23;;;;;;;25.70;9.77;;;7.30;99.90;;;;;;5071260;28;20042;-86
2021/12/19 00:22:49;;;;;;;23.42;9.90;;;7.30;99.90;;;;;;5071292;28;20485;-87
2021/12/19 00:25:14;;;;;;;22.08;8.82;;;7.30;99.90;;;;;;5070806;28;20036;-86
2021/12/19 00:27:40;;;;;;;24.15;9.63;;;7.30;99.90;;;;;;5071350;28;20040;-86
2021/12/19 00:30:06;;;;;;;21.75;9.25;;;7.30;99.90;;;;;;5071023;28;20542;-87
2021/12/19 00:32:32;;;;;;;25.85;9.32;;;7.30;99.90;;;;;;5071270;28;20039;-87
2021/12/19 00:34:57;;;;;;;22.35;9.20;;;7.30;99.90;;;;;;5071351;28;20498;-87
2021/12/19 00:37:23;;;;;;;22.75;8.95;;;7.30;99.90;;;;;;5071471;28;20489;-87
2021/12/19 00:39:49;;;;;;;23.20;9.23;;;7.30;99.90;;;;;;5070768;28;20055;-87
2021/12/19 00:42:36;;;;;;;24.02;9.98;;;7.30;99.90;;;;;;5073937;28;20051;-87
2021/12/19 00:45:27;;;;;;;27.50;10.00;;;7.40;99.90;;;;;;5074303;28;20512;-87
2021/12/19 00:47:53;;;;;;;26.02;9.57;;;7.30;99.90;;;;;;5073693;28;20040;-87
2021/12/19 00:50:19;;;;;;;26.73;10.38;;;7.40;99.90;;;;;;5093579;28;20050;-87
2021/12/19 00:52:47;;;;;;;24.38;10.35;;;7.40;99.90;;;;;;5076309;28;20528;-86
2021/12/19 00:55:18;;;;;;;26.92;9.63;;;7.40;99.90;;;;;;5077927;28;20056;-87
2021/12/19 00:57:44;;;;;;;26.85;11.02;;;7.40;99.90;;;;;;5075619;28;20079;-87
2021/12/19 01:00:13;;;;;;;26.80;10.38;;;7.40;99.90;;;;;;5076822;28;20086;-86
2021/12/19 01:02:39;;;;;;;30.38;11.35;;;7.40;99.90;;;;;;5079153;28;20123;-86
2021/12/19 01:05:05;;;;;;;27.27;11.52;;;7.30;99.90;;;;;;5075139;28;20716;-86
2021/12/19 01:07:31;;;;;;;27.42;10.82;;;7.30;99.90;;;;;;5074610;28;20529;-86
2021/12/19 01:09:57;;;;;;;31.85;11.02;;;7.40;99.90;;;;;;5090311;28;20078;-86
2021/12/19 01:12:24;;;;;;;31.70;11.35;;;7.50;99.90;;;;;;5073589;28;20097;-86
2021/12/19 01:14:50;;;;;;;29.38;10.60;;;7.40;99.90;;;;;;5073319;28;20044;-87
2021/12/19 01:17:15;;;;;;;26.63;9.32;;;7.40;99.90;;;;;;5073981;28;20057;-87
2021/12/19 01:19:42;;;;;;;16.80;6.53;;;7.50;99.90;;;;;;5065605;28;20044;-87
2021/12/19 01:22:07;;;;;;;9.60;4.70;;;7.50;99.90;;;;;;5073294;28;20043;-86
2021/12/19 01:24:33;;;;;;;12.75;4.75;;;7.40;99.90;;;;;;5065249;28;20088;-87
2021/12/19 01:26:58;;;;;;;8.35;4.07;;;7.30;99.90;;;;;;5075547;28;20055;-87
2021/12/19 01:29:24;;;;;;;9.65;4.13;;;7.30;99.90;;;;;;5077166;28;20390;-87
2021/12/19 01:31:50;;;;;;;11.50;4.53;;;7.30;99.90;;;;;;5076247;28;20039;-87
2021/12/19 01:34:15;;;;;;;10.05;4.47;;;7.40;99.90;;;;;;5093735;28;20048;-87
2021/12/19 01:36:41;;;;;;;11.15;4.53;;;7.40;99.90;;;;;;5075409;28;20127;-86
2021/12/19 01:39:08;;;;;;;12.43;5.07;;;7.40;99.90;;;;;;5076633;28;20377;-86
2021/12/19 01:41:34;;;;;;;11.75;5.18;;;7.30;99.90;;;;;;5076644;28;20038;-86
2021/12/19 01:43:59;;;;;;;15.80;5.43;;;7.30;99.90;;;;;;5076096;28;20040;-86
2021/12/19 01:46:25;;;;;;;12.35;5.72;;;7.30;99.90;;;;;;5077231;28;20040;-87
2021/12/19 01:48:51;;;;;;;11.43;5.25;;;7.30;99.90;;;;;;5076035;28;20043;-86
2021/12/19 01:51:16;;;;;;;8.90;4.43;;;7.30;99.90;;;;;;5079543;27;20101;-86
2021/12/19 01:53:42;;;;;;;10.20;4.80;;;7.40;99.90;;;;;;5080942;27;20043;-86
2021/12/19 01:56:08;;;;;;;12.50;4.93;;;7.30;99.90;;;;;;5076353;28;20043;-87
2021/12/19 01:58:35;;;;;;;11.65;5.20;;;7.40;99.90;;;;;;5076476;28;20092;-86
2021/12/19 02:01:01;;;;;;;6.85;3.33;;;7.40;99.90;;;;;;5075632;28;20755;-87
2021/12/19 02:03:27;;;;;;;6.55;3.47;;;7.30;99.90;;;;;;5076099;28;20043;-87
2021/12/19 02:05:53;;;;;;;8.00;3.13;;;7.30;99.90;;;;;;5071461;28;20044;-86
2021/12/19 02:08:19;;;;;;;7.72;2.88;;;7.30;99.90;;;;;;5076064;28;20046;-86
2021/12/19 02:10:45;;;;;;;5.20;3.08;;;7.30;99.90;;;;;;5075793;28;20047;-87
2021/12/19 02:13:13;;;;;;;9.27;2.53;;;7.30;99.90;;;;;;5076017;28;20048;-86
2021/12/19 02:15:41;;;;;;;5.05;2.63;;;7.40;99.90;;;;;;5086147;28;20452;-87
2021/12/19 02:18:11;;;;;;;7.80;2.90;;;7.30;99.90;;;;;;5076098;28;20054;-87
2021/12/19 02:20:44;;;;;;;6.72;3.10;;;7.30;99.90;;;;;;5075474;28;20047;-86
2021/12/19 02:23:11;;;;;;;9.63;3.25;;;7.30;99.90;;;;;;5075802;28;20496;-86
2021/12/19 02:25:37;;;;;;;7.65;3.10;;;7.30;99.90;;;;;;5092361;28;20039;-86
2021/12/19 02:28:03;;;;;;;5.43;2.97;;;7.20;99.90;;;;;;5075227;28;20058;-87
2021/12/19 02:30:29;;;;;;;5.22;2.75;;;7.20;99.90;;;;;;5075613;28;20131;-87
2021/12/19 02:32:55;;;;;;;4.80;2.47;;;7.20;99.90;;;;;;5092506;28;20135;-86
2021/12/19 02:35:26;;;;;;;4.97;2.53;;;7.20;99.90;;;;;;5074928;28;20039;-87
2021/12/19 02:49:19;;;;;;;;;;;7.30;99.90;;;;;;5011536;28;20116;-87
2021/12/19 02:51:46;;;;;;;4.18;1.85;;;7.30;99.90;;;;;;5010750;28;19953;-87
2021/12/19 02:54:11;;;;;;;5.22;2.20;;;7.30;99.90;;;;;;5010981;28;20606;-87
2021/12/19 02:56:37;;;;;;;5.05;1.80;;;7.30;99.90;;;;;;5011159;28;20133;-86
2021/12/19 02:59:03;;;;;;;4.18;1.90;;;7.20;99.90;;;;;;4994217;28;20085;-86
2021/12/19 03:01:29;;;;;;;4.32;1.92;;;7.30;99.90;;;;;;5010877;28;20067;-86
2021/12/19 03:03:54;;;;;;;3.47;1.92;;;7.20;99.90;;;;;;5010246;28;20103;-86
2021/12/19 03:06:20;;;;;;;3.08;1.80;;;7.30;99.90;;;;;;4994101;28;20102;-86
2021/12/19 03:08:49;;;;;;;3.90;1.98;;;7.30;99.90;;;;;;5010387;28;20493;-86
2021/12/19 03:11:50;;;;;;;5.43;2.20;;;7.30;99.90;;;;;;5010529;28;20049;-87
2021/12/19 03:19:33;;;;;;;3.92;2.25;;;7.30;99.90;;;;;;5071253;27;20130;-86
2021/12/19 03:21:58;;;;;;;3.88;1.58;;;7.30;99.90;;;;;;5076700;28;20078;-86
2021/12/19 03:24:24;;;;;;;4.18;2.20;;;7.20;99.90;;;;;;5079447;27;20070;-86
2021/12/19 03:26:49;;;;;;;4.57;1.70;;;7.20;99.90;;;;;;5077680;27;20048;-86
2021/12/19 03:29:15;;;;;;;4.63;2.08;;;7.10;99.90;;;;;;5077743;28;20044;-86
2021/12/19 03:31:41;;;;;;;6.70;2.38;;;7.10;99.90;;;;;;5077089;27;20036;-86
2021/12/19 03:34:07;;;;;;;4.03;2.15;;;7.20;99.90;;;;;;5077060;28;20134;-86
2021/12/19 03:36:33;;;;;;;4.90;1.77;;;7.10;99.90;;;;;;5077306;28;20118;-86
2021/12/19 03:39:01;;;;;;;3.35;2.25;;;7.20;99.90;;;;;;5077237;28;20469;-86
2021/12/19 03:41:33;;;;;;;3.67;1.80;;;7.10;99.90;;;;;;5078276;27;20083;-86
2021/12/19 03:44:00;;;;;;;8.82;2.20;;;7.10;99.90;;;;;;5076894;28;20489;-86
2021/12/19 03:46:26;;;;;;;3.92;1.77;;;7.20;99.90;;;;;;5075810;28;20050;-86
2021/12/19 03:48:51;;;;;;;8.63;2.10;;;7.10;99.90;;;;;;5075734;28;20401;-86
2021/12/19 03:51:17;;;;;;;5.15;2.05;;;7.20;99.90;;;;;;5078123;28;20118;-86
2021/12/19 03:53:42;;;;;;;4.85;1.88;;;7.20;99.90;;;;;;5093787;28;20035;-86
2021/12/19 03:56:08;;;;;;;3.72;2.08;;;7.20;99.90;;;;;;5077491;28;20078;-86
2021/12/19 03:58:33;;;;;;;4.20;2.00;;;7.20;99.90;;;;;;5075037;28;20047;-87
2021/12/19 04:01:02;;;;;;;4.55;2.20;;;7.10;99.90;;;;;;5078347;28;20036;-87
2021/12/19 04:03:29;;;;;;;5.18;2.20;;;7.00;99.90;;;;;;5076485;28;20050;-86
2021/12/19 04:05:55;;;;;;;5.72;2.13;;;7.00;99.90;;;;;;5078400;28;20063;-86
2021/12/19 04:08:21;;;;;;;2.95;2.05;;;7.00;99.90;;;;;;5078372;28;20059;-86
2021/12/19 04:10:49;;;;;;;8.00;2.28;;;7.00;99.90;;;;;;5074480;28;20728;-86
2021/12/19 04:13:15;;;;;;;2.78;1.60;;;6.90;99.90;;;;;;5077313;28;20040;-87
2021/12/19 04:15:41;;;;;;;4.38;2.40;;;6.90;99.90;;;;;;5074402;28;20544;-86
2021/12/19 04:18:07;;;;;;;5.75;2.47;;;7.00;99.90;;;;;;5078495;28;20157;-87
2021/12/19 04:20:32;;;;;;;5.90;2.45;;;6.90;99.90;;;;;;5078351;28;20063;-86
2021/12/19 04:22:58;;;;;;;4.80;2.25;;;6.90;99.90;;;;;;5077709;28;20079;-86
2021/12/19 04:25:23;;;;;;;5.90;2.25;;;6.90;99.90;;;;;;5077778;28;20035;-87
2021/12/19 04:27:50;;;;;;;7.32;2.47;;;6.90;99.90;;;;;;5077755;28;20058;-86
2021/12/19 04:30:21;;;;;;;5.45;2.25;;;6.90;99.90;;;;;;5078098;28;20044;-87
2021/12/19 04:32:56;;;;;;;4.32;2.38;;;7.00;99.90;;;;;;5077813;28;20398;-86
2021/12/19 04:35:22;;;;;;;4.75;2.20;;;6.90;99.90;;;;;;5077942;28;20042;-86
2021/12/19 04:40:20;;;;;;;3.10;1.70;;;6.90;99.90;;;;;;5095064;28;20032;-86
2021/12/19 04:51:26;;;;;;;6.25;2.30;;;6.80;99.90;;;;;;5093992;28;20043;-87
2021/12/19 04:56:46;;;;;;;7.03;2.38;;;6.80;99.90;;;;;;5094653;28;20099;-87
2021/12/19 04:59:36;;;;;;;5.40;2.45;;;6.80;99.90;;;;;;5076933;28;20486;-86
2021/12/19 05:02:17;;;;;;;8.77;2.25;;;6.80;99.90;;;;;;5093797;28;20055;-87
2021/12/19 05:15:29;;;;;;;;;;;6.70;99.90;;;;;;5094448;28;20409;-87
2021/12/19 05:17:59;;;;;;;5.95;2.35;;;6.80;99.90;;;;;;5076828;28;20395;-87
2021/12/19 05:20:28;;;;;;;8.40;2.55;;;6.80;99.90;;;;;;5077682;28;20065;-87
2021/12/19 05:23:00;;;;;;;8.15;2.35;;;6.70;99.90;;;;;;5077324;28;20401;-87
2021/12/19 05:25:26;;;;;;;6.80;2.38;;;6.80;99.90;;;;;;5076136;28;20386;-87
2021/12/19 05:27:53;;;;;;;6.90;2.13;;;6.80;99.90;;;;;;5075789;28;20130;-87
2021/12/19 05:30:20;;;;;;;4.82;2.17;;;6.70;99.90;;;;;;5077084;28;20035;-87
2021/12/19 05:32:47;;;;;;;6.35;2.30;;;6.80;99.90;;;;;;5077242;28;20055;-87
2021/12/19 05:35:24;;;;;;;5.57;2.58;;;6.80;99.90;;;;;;5077262;28;20051;-87
2021/12/19 05:46:02;;;;;;;16.50;4.57;;;6.80;99.90;;;;;;5093310;28;20010;-87
2021/12/19 05:48:28;;;;;;;13.50;4.20;;;6.70;99.90;;;;;;5076797;28;20162;-86
2021/12/19 05:50:54;;;;;;;17.45;4.80;;;6.80;99.90;;;;;;5076601;28;20036;-87
2021/12/19 05:53:19;;;;;;;13.98;4.97;;;6.80;99.90;;;;;;5076923;28;20093;-87
2021/12/19 05:55:45;;;;;;;16.77;5.45;;;6.80;99.90;;;;;;5076597;28;20052;-87
2021/12/19 05:58:11;;;;;;;16.92;5.22;;;6.80;99.90;;;;;;5092813;28;20138;-86
2021/12/19 06:00:36;;;;;;;24.77;6.03;;;6.80;99.90;;;;;;5076468;28;20085;-87
2021/12/19 06:03:03;;;;;;;20.77;5.95;;;6.90;99.90;;;;;;5075858;28;20036;-86
2021/12/19 06:05:29;;;;;;;21.00;6.45;;;6.90;99.90;;;;;;5076315;28;20032;-87
2021/12/19 06:07:55;;;;;;;17.08;6.95;;;7.00;99.90;;;;;;5076167;28;20542;-87
2021/12/19 06:10:21;;;;;;;22.65;7.20;;;7.00;99.90;;;;;;5076126;28;20060;-87
2021/12/19 06:12:47;;;;;;;20.50;7.93;;;7.00;99.90;;;;;;5092312;28;20046;-87
2021/12/19 06:15:12;;;;;;;21.60;7.25;;;7.10;99.90;;;;;;5076279;28;20122;-87
2021/12/19 06:17:39;;;;;;;29.50;8.10;;;7.00;99.90;;;;;;5076509;28;20028;-87
2021/12/19 06:20:06;;;;;;;25.85;8.65;;;7.00;99.90;;;;;;5075845;28;20040;-87
2021/12/19 06:22:32;;;;;;;24.88;9.00;;;7.00;99.90;;;;;;5075932;28;20046;-87
2021/12/19 06:24:58;;;;;;;28.60;8.55;;;7.00;99.90;;;;;;5076052;28;20039;-87
2021/12/19 06:27:23;;;;;;;29.10;9.82;;;7.00;99.90;;;;;;5074911;28;20055;-87
2021/12/19 06:29:49;;;;;;;32.67;11.60;;;7.00;99.90;;;;;;5075573;28;20390;-86
2021/12/19 06:32:16;;;;;;;35.72;11.02;;;7.00;99.90;;;;;;5075393;28;20046;-87
2021/12/19 06:34:42;;;;;;;34.00;12.68;;;6.90;99.90;;;;;;5075384;28;20031;-87
2021/12/19 06:37:10;;;;;;;28.65;11.02;;;7.00;99.90;;;;;;5070998;28;20036;-88
2021/12/19 06:39:37;;;;;;;32.55;12.20;;;7.00;99.90;;;;;;5072331;28;20039;-88
2021/12/19 06:42:04;;;;;;;31.73;12.40;;;7.00;99.90;;;;;;5076437;28;20040;-87
2021/12/19 06:44:31;;;;;;;41.75;13.73;;;7.00;99.90;;;;;;5068664;28;20032;-88
2021/12/19 06:46:56;;;;;;;33.47;11.82;;;7.00;99.90;;;;;;5056027;28;20097;-88
2021/12/19 06:49:22;;;;;;;36.60;12.95;;;7.00;99.90;;;;;;5071169;28;20048;-87
2021/12/19 06:51:47;;;;;;;39.60;12.40;;;7.00;99.90;;;;;;5087085;28;20040;-87
2021/12/19 06:54:13;;;;;;;38.65;13.07;;;7.00;99.90;;;;;;5072794;28;20061;-86
2021/12/19 06:56:39;;;;;;;37.08;12.90;;;7.00;99.90;;;;;;5056421;28;20040;-87
2021/12/19 06:59:04;;;;;;;38.95;12.93;;;7.00;99.90;;;;;;5072251;28;20083;-88
2021/12/19 07:01:30;;;;;;;45.72;13.23;;;7.00;99.90;;;;;;5066020;28;20040;-87
2021/12/19 07:03:56;;;;;;;40.83;12.55;;;6.90;99.90;;;;;;5074684;28;20046;-88
2021/12/19 07:06:21;;;;;;;50.50;13.20;;;7.00;99.90;;;;;;5072324;28;20493;-88
2021/12/19 07:08:47;;;;;;;45.28;12.45;;;6.90;99.90;;;;;;5072397;28;20100;-88
2021/12/19 07:11:13;;;;;;;38.05;12.52;;;6.90;99.90;;;;;;5063570;28;20036;-88
2021/12/19 07:13:38;;;;;;;36.72;12.70;;;6.90;99.90;;;;;;5070891;28;20039;-87
2021/12/19 07:16:06;;;;;;;39.95;12.70;;;6.90;99.90;;;;;;5071746;28;20028;-87
2021/12/19 07:18:32;;;;;;;37.35;12.90;;;6.90;99.90;;;;;;5071419;28;20130;-87
2021/12/19 07:20:57;;;;;;;46.88;13.38;;;6.90;99.90;;;;;;5071586;28;20050;-87
2021/12/19 07:23:23;;;;;;;36.83;12.52;;;6.90;99.90;;;;;;5071833;28;20052;-86
2021/12/19 07:25:50;;;;;;;51.35;13.32;;;7.00;99.90;;;;;;5061783;28;20039;-87
2021/12/19 07:28:15;;;;;;;52.47;14.23;;;6.90;99.90;;;;;;5074640;28;20056;-87
2021/12/19 07:30:42;;;;;;;46.97;13.63;;;7.00;99.90;;;;;;5075394;28;20040;-87
2021/12/19 07:33:09;;;;;;;41.63;13.38;;;7.00;99.90;;;;;;5057652;28;20048;-87
2021/12/19 07:35:38;;;;;;;33.88;12.48;;;6.90;99.90;;;;;;5077685;28;20095;-88
2021/12/19 07:38:05;;;;;;;39.50;11.93;;;7.00;99.90;;;;;;5082512;27;20475;-86
2021/12/19 07:40:36;;;;;;;34.22;11.38;;;7.00;99.90;;;;;;5085000;28;20036;-87
2021/12/19 07:43:06;;;;;;;33.65;9.90;;;7.00;99.90;;;;;;5064914;28;20092;-87
2021/12/19 07:45:32;;;;;;;40.45;12.00;;;7.00;99.90;;;;;;5070399;28;20137;-87
2021/12/19 07:47:58;;;;;;;27.00;9.55;;;7.00;99.90;;;;;;5070542;28;20118;-87
2021/12/19 07:50:25;;;;;;;33.55;9.57;;;7.00;99.90;;;;;;5063598;28;20039;-87
2021/12/19 07:52:51;;;;;;;30.10;7.97;;;7.00;99.90;;;;;;5080186;28;20508;-87
2021/12/19 07:55:17;;;;;;;21.02;7.15;;;7.00;99.90;;;;;;5065979;28;20040;-87
2021/12/19 07:57:43;;;;;;;37.17;10.90;;;6.90;99.90;;;;;;5080684;28;20123;-87
2021/12/19 08:00:11;;;;;;;27.95;10.63;;;6.90;99.90;;;;;;5065541;28;20706;-87
2021/12/19 08:02:37;;;;;;;29.15;10.20;;;6.90;99.90;;;;;;5077790;28;20082;-88
2021/12/19 08:05:03;;;;;;;108.03;55.25;;;6.90;99.90;;;;;;5076761;28;20055;-88
2021/12/19 08:07:28;;;;;;;41.33;20.75;;;6.90;99.90;;;;;;5077158;28;20105;-88
2021/12/19 08:10:01;;;;;;;34.63;11.57;;;7.00;99.90;;;;;;5084193;28;20039;-88
2021/12/19 08:12:27;;;;;;;27.08;10.45;;;7.00;99.90;;;;;;5079203;28;20469;-88
2021/12/19 08:14:53;;;;;;;26.27;10.00;;;7.00;99.90;;;;;;5073964;28;20036;-88
2021/12/19 08:17:18;;;;;;;27.20;12.80;;;7.00;99.90;;;;;;5068247;28;20046;-89
2021/12/19 08:19:44;;;;;;;32.17;10.43;;;6.90;99.90;;;;;;5068108;28;20032;-88
2021/12/19 08:22:10;;;;;;;28.50;9.65;;;7.00;99.90;;;;;;5075273;28;20132;-89
2021/12/19 08:24:36;;;;;;;112.70;41.92;;;7.00;99.90;;;;;;5075420;28;20032;-88
2021/12/19 08:27:02;;;;;;;82.43;42.85;;;7.00;99.90;;;;;;5074745;28;20509;-88
2021/12/19 08:29:28;;;;;;;88.53;42.72;;;7.00;99.90;;;;;;5068623;28;20047;-88
2021/12/19 08:31:53;;;;;;;250.80;133.63;;;7.00;99.90;;;;;;5083711;28;20043;-89
2021/12/19 08:34:19;;;;;;;72.25;36.42;;;7.00;99.90;;;;;;5089238;28;20046;-89
2021/12/19 08:36:45;;;;;;;231.15;155.30;;;7.10;99.90;;;;;;5079696;28;20099;-87
2021/12/19 08:39:12;;;;;;;62.00;38.10;;;7.00;99.90;;;;;;5069404;28;20027;-87
2021/12/19 08:41:38;;;;;;;37.88;18.10;;;7.10;99.90;;;;;;5071521;28;20039;-87
2021/12/19 08:44:04;;;;;;;43.92;18.92;;;7.10;99.90;;;;;;5068589;28;20134;-87
2021/12/19 08:46:35;;;;;;;31.13;10.07;;;7.10;99.90;;;;;;5070065;28;20126;-87
2021/12/19 08:49:02;;;;;;;40.40;21.52;;;7.10;99.90;;;;;;5074320;28;20078;-87
2021/12/19 08:51:28;;;;;;;36.58;15.10;;;7.20;99.90;;;;;;5074630;28;20042;-87
2021/12/19 08:53:54;;;;;;;41.67;19.83;;;7.10;99.90;;;;;;5071564;28;20557;-87
2021/12/19 08:56:19;;;;;;;42.35;24.75;;;7.10;99.90;;;;;;5067593;28;20083;-87
2021/12/19 08:58:45;;;;;;;48.17;27.55;;;7.10;99.90;;;;;;5070925;28;20039;-86
2021/12/19 09:01:10;;;;;;;43.05;25.35;;;7.10;99.90;;;;;;5069880;28;20113;-87
2021/12/19 09:03:36;;;;;;;124.40;59.92;;;7.10;99.90;;;;;;5090023;28;20056;-87
2021/12/19 09:06:02;;;;;;;75.68;52.05;;;7.10;99.90;;;;;;5076953;28;20036;-87
2021/12/19 09:08:28;;;;;;;39.83;20.17;;;7.10;99.90;;;;;;5076500;28;20047;-87
2021/12/19 09:10:55;;;;;;;42.15;29.95;;;7.10;99.90;;;;;;5073790;28;20413;-91
2021/12/19 09:13:21;;;;;;;35.60;17.90;;;7.10;99.90;;;;;;5077697;28;20051;-92
2021/12/19 09:15:47;;;;;;;30.63;15.65;;;7.10;99.90;;;;;;5077117;28;20039;-92
2021/12/19 09:18:12;;;;;;;26.13;10.55;;;7.20;99.90;;;;;;5074773;28;20386;-91
2021/12/19 09:20:39;;;;;;;41.03;22.10;;;7.10;99.90;;;;;;5069586;28;20050;-91
2021/12/19 09:23:05;;;;;;;35.80;17.77;;;7.10;99.90;;;;;;5074880;28;20044;-91
2021/12/19 09:25:30;;;;;;;24.15;11.68;;;7.10;99.90;;;;;;5071382;28;20058;-91
2021/12/19 09:27:56;;;;;;;29.65;14.85;;;7.10;99.90;;;;;;5077304;28;20088;-90
2021/12/19 09:30:24;;;;;;;33.65;12.98;;;7.10;99.90;;;;;;5077887;28;20039;-91
2021/12/19 09:32:49;;;;;;;27.08;9.13;;;7.10;99.90;;;;;;5073719;28;20455;-90
2021/12/19 09:35:16;;;;;;;31.05;10.07;;;7.10;99.90;;;;;;5071191;28;20043;-92
2021/12/19 09:37:41;;;;;;;25.30;7.38;;;7.10;99.90;;;;;;5073753;28;20476;-90
2021/12/19 09:40:12;;;;;;;26.58;8.55;;;7.10;99.90;;;;;;5076045;28;20083;-92
2021/12/19 09:42:46;;;;;;;28.98;10.88;;;7.10;99.90;;;;;;5077915;28;20066;-91
2021/12/19 09:45:16;;;;;;;28.15;7.95;;;7.10;99.90;;;;;;5078859;28;20073;-92
2021/12/19 09:47:43;;;;;;;31.75;9.40;;;7.10;99.90;;;;;;5077795;28;20039;-91
2021/12/19 09:50:09;;;;;;;26.17;8.02;;;7.10;99.90;;;;;;5077812;28;20503;-93
2021/12/19 09:52:35;;;;;;;26.13;8.50;;;7.10;99.90;;;;;;5077714;28;20050;-91
2021/12/19 09:55:01;;;;;;;20.80;7.80;;;7.10;99.90;;;;;;5070196;28;20032;-92
2021/12/19 09:57:26;;;;;;;30.17;11.30;;;7.20;99.90;;;;;;5077630;28;20167;-91
2021/12/19 09:59:52;;;;;;;29.20;11.32;;;7.20;99.90;;;;;;5077374;28;20069;-93
2021/12/19 10:02:18;;;;;;;36.83;18.70;;;7.20;99.90;;;;;;5077567;28;20031;-92
2021/12/19 10:04:45;;;;;;;27.02;8.23;;;7.20;99.90;;;;;;5073594;28;20044;-92
2021/12/19 10:07:14;;;;;;;25.55;17.17;;;7.20;99.90;;;;;;5057370;28;20036;-93
2021/12/19 10:10:02;;;;;;;27.30;8.77;;;7.20;99.90;;;;;;5072193;28;20130;-93
2021/12/19 10:12:48;;;;;;;26.02;8.45;;;7.20;99.90;;;;;;5077895;28;20507;-93
2021/12/19 10:15:18;;;;;;;17.42;6.60;;;7.30;99.90;;;;;;5076960;28;20471;-94
2021/12/19 10:17:45;;;;;;;32.28;7.82;;;7.30;99.90;;;;;;5076573;28;20032;-93
2021/12/19 10:20:13;;;;;;;20.13;7.10;;;7.40;99.90;;;;;;5076429;28;20055;-93
2021/12/19 10:22:43;;;;;;;27.10;6.68;;;7.40;99.90;;;;;;5076982;28;20093;-91
2021/12/19 10:25:19;;;;;;;34.38;16.42;;;7.40;99.90;;;;;;5076893;28;20071;-91
2021/12/19 10:27:47;;;;;;;21.80;6.00;;;7.40;99.90;;;;;;5076264;28;20671;-91
2021/12/19 10:30:31;;;;;;;19.45;6.65;;;7.40;99.90;;;;;;5076366;28;20125;-91
2021/12/19 10:33:02;;;;;;;;;;;7.40;99.90;;;;;;5076685;28;20051;-91
2021/12/19 10:35:32;;;;;;;23.23;8.05;;;7.40;99.90;;;;;;5077074;28;19938;-91
2021/12/19 10:37:59;;;;;;;32.83;11.50;;;7.40;99.90;;;;;;5076093;28;20114;-92
2021/12/19 10:40:25;;;;;;;34.45;16.80;;;7.40;99.90;;;;;;5076551;28;20046;-93
2021/12/19 10:43:02;;;;;;;47.58;32.03;;;7.40;99.90;;;;;;5076502;28;20481;-93
2021/12/19 10:45:34;;;;;;;30.50;17.30;;;7.30;99.90;;;;;;5073147;28;20047;-93
2021/12/19 10:48:11;;;;;;;31.33;12.77;;;7.40;99.90;;;;;;5064489;28;20044;-93
2021/12/19 10:50:49;;;;;;;20.60;8.38;;;7.40;99.90;;;;;;5065261;28;20064;-91
2021/12/19 10:53:15;;;;;;;22.27;8.50;;;7.40;99.90;;;;;;5076814;28;20099;-92
2021/12/19 10:55:47;;;;;;;24.65;9.50;;;7.40;99.90;;;;;;5064786;28;20055;-91
2021/12/19 10:58:22;;;;;;;27.83;11.05;;;7.40;99.90;;;;;;5075796;28;20485;-90
2021/12/19 11:01:25;;;;;;;21.67;9.60;;;7.40;99.90;;;;;;5061745;28;20379;-91
2021/12/19 11:03:56;;;;;;;26.73;9.50;;;7.40;99.90;;;;;;5043471;28;20568;-90
2021/12/19 11:06:26;;;;;;;25.58;7.45;;;7.40;99.90;;;;;;5073262;28;20032;-90
2021/12/19 11:08:54;;;;;;;26.40;7.70;;;7.40;99.90;;;;;;5072628;28;20036;-91
2021/12/19 11:11:33;;;;;;;23.90;10.07;;;7.40;99.90;;;;;;5075272;28;20374;-89
2021/12/19 11:13:59;;;;;;;24.30;10.65;;;7.40;99.90;;;;;;5075947;28;20127;-91
2021/12/19 11:16:26;;;;;;;27.88;13.35;;;7.40;99.90;;;;;;5075380;28;20036;-91
2021/12/19 11:18:52;;;;;;;19.05;8.05;;;7.40;99.90;;;;;;5077756;27;20047;-90
2021/12/19 11:21:18;;;;;;;26.25;14.57;;;7.40;99.90;;;;;;5083242;27;20076;-90
2021/12/19 11:23:45;;;;;;;25.48;11.40;;;7.40;99.90;;;;;;5095892;27;20039;-90
2021/12/19 11:26:11;;;;;;;26.13;9.23;;;7.50;99.90;;;;;;5089108;27;20127;-90
2021/12/19 11:28:37;;;;;;;87.28;66.57;;;7.40;99.90;;;;;;5078967;28;20095;-90
2021/12/19 11:31:04;;;;;;;48.28;30.35;;;7.50;99.90;;;;;;5082869;28;20039;-90
2021/12/19 11:33:56;;;;;;;39.80;18.88;;;7.40;99.90;;;;;;5080848;28;20063;-90
2021/12/19 11:36:22;;;;;;;35.95;14.05;;;7.40;99.90;;;;;;5078731;28;20543;-90
2021/12/19 11:38:48;;;;;;;51.17;26.95;;;7.40;99.90;;;;;;5078289;27;20097;-90
2021/12/19 11:41:14;;;;;;;52.78;35.13;;;7.50;99.90;;;;;;5077833;27;20039;-90
2021/12/19 11:43:42;;;;;;;49.08;31.67;;;7.40;99.90;;;;;;5075003;28;20054;-90
2021/12/19 11:46:17;;;;;;;46.03;35.50;;;7.50;99.90;;;;;;5080115;27;20047;-91
2021/12/19 11:48:43;;;;;;;30.45;7.50;;;7.50;99.90;;;;;;5081780;28;20074;-92
2021/12/19 11:51:18;;;;;;;22.58;7.32;;;7.50;99.90;;;;;;5076913;28;20060;-91
2021/12/19 11:53:43;;;;;;;22.92;8.60;;;7.40;99.90;;;;;;5074998;28;20478;-90
2021/12/19 11:56:17;;;;;;;24.02;6.55;;;7.40;99.90;;;;;;5080602;28;20139;-91
2021/12/19 11:58:52;;;;;;;25.15;6.78;;;7.50;99.90;;;;;;5078228;28;20036;-91
2021/12/19 12:01:22;;;;;;;33.40;5.35;;;7.50;99.90;;;;;;5091820;28;20050;-92
2021/12/19 12:03:54;;;;;;;16.55;5.82;;;7.50;99.90;;;;;;5083203;28;20256;-91
2021/12/19 12:06:21;;;;;;;29.90;17.60;;;7.50;99.90;;;;;;5075445;28;20078;-91
2021/12/19 12:09:11;;;;;;;27.77;6.95;;;7.50;99.90;;;;;;5108393;28;20119;-91
2021/12/19 12:11:59;;;;;;;23.50;6.10;;;7.50;99.90;;;;;;5089385;28;20546;-92
2021/12/19 12:14:30;;;;;;;20.88;6.80;;;7.60;99.90;;;;;;5067715;28;20512;-93
2021/12/19 12:17:05;;;;;;;19.27;4.85;;;7.60;99.90;;;;;;5091867;28;20489;-94
2021/12/19 12:19:41;;;;;;;23.48;4.90;;;7.60;99.90;;;;;;5084691;28;20035;-93
2021/12/19 12:22:35;;;;;;;19.70;6.28;;;7.60;99.90;;;;;;5091313;28;20050;-93
2021/12/19 12:25:16;;;;;;;24.88;6.90;;;7.60;99.90;;;;;;5074903;28;20184;-91
2021/12/19 12:27:52;;;;;;;23.27;7.18;;;7.60;99.90;;;;;;5074302;28;20421;-92
2021/12/19 12:30:25;;;;;;;22.50;6.50;;;7.70;99.90;;;;;;5108061;28;20561;-92
2021/12/19 12:32:52;;;;;;;29.50;8.45;;;7.70;99.90;;;;;;5076183;28;20051;-92
2021/12/19 12:35:19;;;;;;;22.27;6.55;;;7.70;99.90;;;;;;5095763;28;20141;-92
2021/12/19 12:37:48;;;;;;;26.58;7.78;;;7.70;99.90;;;;;;5096330;27;20046;-92
2021/12/19 12:40:20;;;;;;;26.58;6.20;;;7.70;99.90;;;;;;5077640;28;20039;-91
2021/12/19 12:43:01;;;;;;;32.17;8.27;;;7.60;99.90;;;;;;5095238;28;20165;-92
2021/12/19 12:45:28;;;;;;;30.10;8.82;;;7.70;99.90;;;;;;5075392;28;20058;-92
2021/12/19 12:47:54;;;;;;;22.92;7.28;;;7.70;99.90;;;;;;5071997;28;20131;-94
2021/12/19 12:50:20;;;;;;;24.83;5.13;;;7.70;99.90;;;;;;5077681;28;20122;-93
2021/12/19 12:52:46;;;;;;;25.98;6.72;;;7.70;99.90;;;;;;5077472;28;20047;-94
2021/12/19 12:55:14;;;;;;;19.50;4.72;;;7.70;99.90;;;;;;5076081;28;20401;-93
2021/12/19 12:57:41;;;;;;;20.10;5.55;;;7.70;99.90;;;;;;5071302;28;20036;-93
2021/12/19 13:00:17;;;;;;;30.42;5.80;;;7.70;99.90;;;;;;5073864;28;20040;-93
2021/12/19 13:02:44;;;;;;;26.80;5.57;;;7.80;99.90;;;;;;5076733;28;20039;-93
2021/12/19 13:05:12;;;;;;;22.80;6.53;;;7.70;99.90;;;;;;5072682;28;20039;-93
2021/12/19 13:07:38;;;;;;;20.10;5.05;;;7.70;99.90;;;;;;5077104;28;20428;-93
2021/12/19 13:10:05;;;;;;;18.13;5.10;;;7.70;99.90;;;;;;5069196;28;20043;-94
2021/12/19 13:12:41;;;;;;;19.77;5.05;;;7.70;99.90;;;;;;5076365;28;20040;-93
2021/12/19 13:15:15;;;;;;;22.15;4.68;;;7.70;99.90;;;;;;5077741;28;20422;-93
2021/12/19 13:17:48;;;;;;;24.85;4.82;;;7.70;99.90;;;;;;5075880;28;20031;-93
2021/12/19 13:20:25;;;;;;;24.05;4.57;;;7.70;99.90;;;;;;5077432;28;20093;-92
2021/12/19 13:22:55;;;;;;;25.42;6.07;;;7.80;99.90;;;;;;5076424;28;20051;-93
2021/12/19 13:25:33;;;;;;;25.63;4.63;;;7.70;99.90;;;;;;5077497;28;20089;-93
2021/12/19 13:28:01;;;;;;;30.30;5.15;;;7.70;99.90;;;;;;5068445;28;20054;-93
2021/12/19 13:30:30;;;;;;;32.78;7.68;;;7.70;99.90;;;;;;5077239;28;20074;-94
2021/12/19 13:33:14;;;;;;;22.05;7.47;;;7.70;99.90;;;;;;5076698;28;20047;-93
2021/12/19 13:35:52;;;;;;;25.05;7.13;;;7.70;99.90;;;;;;5076428;28;20049;-93
2021/12/19 13:38:17;;;;;;;23.63;4.80;;;7.60;99.90;;;;;;5076827;28;20044;-92
2021/12/19 13:40:46;;;;;;;29.80;6.20;;;7.60;99.90;;;;;;5071225;28;20054;-93
2021/12/19 13:43:16;;;;;;;33.35;8.63;;;7.60;99.90;;;;;;5093420;28;20046;-94
2021/12/19 13:45:48;;;;;;;29.98;6.38;;;7.60;99.90;;;;;;5076670;28;20122;-95